sensor_id;sensor_type;location;lat;lon;timestamp;temperature;humidity
68248;SHT30;55064;49.636;12.164;2022-10-19T00:01:17;12.52;97.45
68248;SHT30;55064;49.636;12.164;2022-10-19T00:03:48;12.46;97.59
68248;SHT30;55064;49.636;12.164;2022-10-19T00:06:23;12.35;97.68
68248;SHT30;55064;49.636;12.164;2022-10-19T00:09:04;12.34;97.52
68248;SHT30;55064;49.636;12.164;2022-10-19T00:11:30;12.37;97.34
68248;SHT30;55064;49.636;12.164;2022-10-19T00:13:57;12.37;97.28
68248;SHT30;55064;49.636;12.164;2022-10-19T00:16:30;12.37;97.26
68248;SHT30;55064;49.636;12.164;2022-10-19T00:19:00;12.38;97.09
68248;SHT30;55064;49.636;12.164;2022-10-19T00:21:28;12.30;96.99
68248;SHT30;55064;49.636;12.164;2022-10-19T00:23:54;12.24;96.91
68248;SHT30;55064;49.636;12.164;2022-10-19T00:26:19;12.24;96.92
68248;SHT30;55064;49.636;12.164;2022-10-19T00:28:45;12.18;96.81
68248;SHT30;55064;49.636;12.164;2022-10-19T00:31:16;12.10;96.90
68248;SHT30;55064;49.636;12.164;2022-10-19T00:33:45;12.04;97.26
68248;SHT30;55064;49.636;12.164;2022-10-19T00:36:20;11.93;97.47
68248;SHT30;55064;49.636;12.164;2022-10-19T00:38:46;11.90;97.44
68248;SHT30;55064;49.636;12.164;2022-10-19T00:41:15;11.89;97.24
68248;SHT30;55064;49.636;12.164;2022-10-19T00:43:55;11.91;96.70
68248;SHT30;55064;49.636;12.164;2022-10-19T00:46:24;11.91;96.77
68248;SHT30;55064;49.636;12.164;2022-10-19T00:48:53;11.89;96.74
68248;SHT30;55064;49.636;12.164;2022-10-19T00:51:25;11.89;96.65
68248;SHT30;55064;49.636;12.164;2022-10-19T00:53:52;11.90;96.53
68248;SHT30;55064;49.636;12.164;2022-10-19T00:56:17;11.90;96.52
68248;SHT30;55064;49.636;12.164;2022-10-19T00:58:45;11.91;96.67
68248;SHT30;55064;49.636;12.164;2022-10-19T01:01:16;11.87;96.94
68248;SHT30;55064;49.636;12.164;2022-10-19T01:03:43;11.83;97.12
68248;SHT30;55064;49.636;12.164;2022-10-19T01:06:13;11.90;97.30
68248;SHT30;55064;49.636;12.164;2022-10-19T01:08:40;11.90;97.08
68248;SHT30;55064;49.636;12.164;2022-10-19T01:17:26;11.82;97.62
68248;SHT30;55064;49.636;12.164;2022-10-19T01:39:12;11.87;96.92
68248;SHT30;55064;49.636;12.164;2022-10-19T01:42:02;11.89;96.94
68248;SHT30;55064;49.636;12.164;2022-10-19T01:44:52;11.87;96.95
68248;SHT30;55064;49.636;12.164;2022-10-19T01:47:29;11.89;97.22
68248;SHT30;55064;49.636;12.164;2022-10-19T01:50:12;11.85;97.36
68248;SHT30;55064;49.636;12.164;2022-10-19T01:52:40;11.86;97.08
68248;SHT30;55064;49.636;12.164;2022-10-19T01:55:08;11.86;97.04
68248;SHT30;55064;49.636;12.164;2022-10-19T01:57:48;11.91;96.98
68248;SHT30;55064;49.636;12.164;2022-10-19T02:00:18;11.89;97.06
68248;SHT30;55064;49.636;12.164;2022-10-19T02:02:51;11.86;97.97
68248;SHT30;55064;49.636;12.164;2022-10-19T02:05:22;11.76;98.56
68248;SHT30;55064;49.636;12.164;2022-10-19T02:07:53;11.75;98.27
68248;SHT30;55064;49.636;12.164;2022-10-19T02:10:23;11.69;98.70
68248;SHT30;55064;49.636;12.164;2022-10-19T02:12:49;11.66;99.08
68248;SHT30;55064;49.636;12.164;2022-10-19T02:15:19;11.45;98.71
68248;SHT30;55064;49.636;12.164;2022-10-19T02:17:50;11.45;98.58
68248;SHT30;55064;49.636;12.164;2022-10-19T02:20:19;11.45;98.23
68248;SHT30;55064;49.636;12.164;2022-10-19T02:22:45;11.44;99.12
68248;SHT30;55064;49.636;12.164;2022-10-19T02:25:11;11.44;98.63
68248;SHT30;55064;49.636;12.164;2022-10-19T02:27:42;11.46;98.52
68248;SHT30;55064;49.636;12.164;2022-10-19T02:30:15;11.39;99.06
68248;SHT30;55064;49.636;12.164;2022-10-19T02:32:42;11.39;98.59
68248;SHT30;55064;49.636;12.164;2022-10-19T02:35:11;11.34;98.54
68248;SHT30;55064;49.636;12.164;2022-10-19T02:37:41;11.28;99.11
68248;SHT30;55064;49.636;12.164;2022-10-19T02:40:10;11.28;99.52
68248;SHT30;55064;49.636;12.164;2022-10-19T02:42:42;11.21;99.84
68248;SHT30;55064;49.636;12.164;2022-10-19T02:45:18;11.17;99.99
68248;SHT30;55064;49.636;12.164;2022-10-19T02:48:02;11.21;99.99
68248;SHT30;55064;49.636;12.164;2022-10-19T02:50:28;11.27;99.99
68248;SHT30;55064;49.636;12.164;2022-10-19T02:52:54;11.32;99.81
68248;SHT30;55064;49.636;12.164;2022-10-19T02:55:22;11.35;99.40
68248;SHT30;55064;49.636;12.164;2022-10-19T02:57:54;11.39;98.87
68248;SHT30;55064;49.636;12.164;2022-10-19T03:00:23;11.39;98.79
68248;SHT30;55064;49.636;12.164;2022-10-19T03:02:51;11.35;98.80
68248;SHT30;55064;49.636;12.164;2022-10-19T03:05:19;11.34;99.09
68248;SHT30;55064;49.636;12.164;2022-10-19T03:07:44;11.34;99.05
68248;SHT30;55064;49.636;12.164;2022-10-19T03:10:14;11.30;99.25
68248;SHT30;55064;49.636;12.164;2022-10-19T03:12:39;11.27;99.63
68248;SHT30;55064;49.636;12.164;2022-10-19T03:15:08;11.28;99.79
68248;SHT30;55064;49.636;12.164;2022-10-19T03:17:39;11.21;99.90
68248;SHT30;55064;49.636;12.164;2022-10-19T03:20:05;11.20;99.73
68248;SHT30;55064;49.636;12.164;2022-10-19T03:22:30;11.21;99.99
68248;SHT30;55064;49.636;12.164;2022-10-19T03:24:55;11.18;99.79
68248;SHT30;55064;49.636;12.164;2022-10-19T03:27:23;11.24;99.78
68248;SHT30;55064;49.636;12.164;2022-10-19T03:29:51;11.27;99.99
68248;SHT30;55064;49.636;12.164;2022-10-19T03:32:17;11.25;99.80
68248;SHT30;55064;49.636;12.164;2022-10-19T03:34:42;11.32;99.76
68248;SHT30;55064;49.636;12.164;2022-10-19T03:37:10;11.35;99.69
68248;SHT30;55064;49.636;12.164;2022-10-19T03:39:37;11.30;99.80
68248;SHT30;55064;49.636;12.164;2022-10-19T03:42:02;11.30;99.52
68248;SHT30;55064;49.636;12.164;2022-10-19T03:44:28;11.30;99.54
68248;SHT30;55064;49.636;12.164;2022-10-19T03:46:55;11.31;99.39
68248;SHT30;55064;49.636;12.164;2022-10-19T03:49:23;11.30;99.14
68248;SHT30;55064;49.636;12.164;2022-10-19T03:51:51;11.31;99.19
68248;SHT30;55064;49.636;12.164;2022-10-19T03:54:18;11.28;99.11
68248;SHT30;55064;49.636;12.164;2022-10-19T03:56:44;11.30;99.33
68248;SHT30;55064;49.636;12.164;2022-10-19T03:59:12;11.16;99.40
68248;SHT30;55064;49.636;12.164;2022-10-19T04:01:44;11.13;99.58
68248;SHT30;55064;49.636;12.164;2022-10-19T04:04:15;11.23;99.58
68248;SHT30;55064;49.636;12.164;2022-10-19T04:06:43;11.28;99.82
68248;SHT30;55064;49.636;12.164;2022-10-19T04:09:14;11.23;99.34
68248;SHT30;55064;49.636;12.164;2022-10-19T04:11:40;11.18;99.46
68248;SHT30;55064;49.636;12.164;2022-10-19T04:14:06;11.17;99.54
68248;SHT30;55064;49.636;12.164;2022-10-19T04:16:32;11.11;99.55
68248;SHT30;55064;49.636;12.164;2022-10-19T04:18:59;11.07;99.76
68248;SHT30;55064;49.636;12.164;2022-10-19T04:24:04;11.11;99.76
68248;SHT30;55064;49.636;12.164;2022-10-19T04:26:30;11.14;99.96
68248;SHT30;55064;49.636;12.164;2022-10-19T04:29:01;11.14;99.91
68248;SHT30;55064;49.636;12.164;2022-10-19T04:31:29;11.17;99.90
68248;SHT30;55064;49.636;12.164;2022-10-19T04:33:55;11.18;99.98
68248;SHT30;55064;49.636;12.164;2022-10-19T04:36:20;11.25;99.92
68248;SHT30;55064;49.636;12.164;2022-10-19T04:38:46;11.21;99.97
68248;SHT30;55064;49.636;12.164;2022-10-19T04:41:15;11.16;99.74
68248;SHT30;55064;49.636;12.164;2022-10-19T04:43:43;11.13;99.86
68248;SHT30;55064;49.636;12.164;2022-10-19T04:46:14;11.06;99.51
68248;SHT30;55064;49.636;12.164;2022-10-19T04:48:43;11.07;99.99
68248;SHT30;55064;49.636;12.164;2022-10-19T04:51:14;11.08;99.95
68248;SHT30;55064;49.636;12.164;2022-10-19T04:53:40;11.07;99.91
68248;SHT30;55064;49.636;12.164;2022-10-19T04:56:10;11.07;99.99
68248;SHT30;55064;49.636;12.164;2022-10-19T04:58:38;11.10;99.99
68248;SHT30;55064;49.636;12.164;2022-10-19T05:01:09;11.16;99.99
68248;SHT30;55064;49.636;12.164;2022-10-19T05:03:37;11.16;99.99
68248;SHT30;55064;49.636;12.164;2022-10-19T05:06:05;11.20;99.99
68248;SHT30;55064;49.636;12.164;2022-10-19T05:08:32;11.24;99.99
68248;SHT30;55064;49.636;12.164;2022-10-19T05:11:04;11.20;99.99
68248;SHT30;55064;49.636;12.164;2022-10-19T05:13:30;11.18;99.99
68248;SHT30;55064;49.636;12.164;2022-10-19T05:16:01;11.20;99.99
68248;SHT30;55064;49.636;12.164;2022-10-19T05:18:27;11.28;99.86
68248;SHT30;55064;49.636;12.164;2022-10-19T05:21:07;11.30;99.78
68248;SHT30;55064;49.636;12.164;2022-10-19T05:23:33;11.30;99.63
68248;SHT30;55064;49.636;12.164;2022-10-19T05:28:35;11.25;99.77
68248;SHT30;55064;49.636;12.164;2022-10-19T05:33:37;11.28;99.40
68248;SHT30;55064;49.636;12.164;2022-10-19T05:36:15;11.41;99.02
68248;SHT30;55064;49.636;12.164;2022-10-19T05:38:42;11.38;98.50
68248;SHT30;55064;49.636;12.164;2022-10-19T05:41:08;11.41;98.39
68248;SHT30;55064;49.636;12.164;2022-10-19T05:43:36;11.41;98.07
68248;SHT30;55064;49.636;12.164;2022-10-19T05:46:10;11.38;98.19
68248;SHT30;55064;49.636;12.164;2022-10-19T05:48:39;11.38;97.81
68248;SHT30;55064;49.636;12.164;2022-10-19T05:51:10;11.32;97.91
68248;SHT30;55064;49.636;12.164;2022-10-19T05:53:35;11.27;98.12
68248;SHT30;55064;49.636;12.164;2022-10-19T05:56:04;11.17;98.14
68248;SHT30;55064;49.636;12.164;2022-10-19T05:58:35;11.06;98.19
68248;SHT30;55064;49.636;12.164;2022-10-19T06:01:03;11.04;98.50
68248;SHT30;55064;49.636;12.164;2022-10-19T06:03:30;11.07;98.51
68248;SHT30;55064;49.636;12.164;2022-10-19T06:06:01;11.13;98.37
68248;SHT30;55064;49.636;12.164;2022-10-19T06:08:27;11.16;98.41
68248;SHT30;55064;49.636;12.164;2022-10-19T06:11:03;11.14;98.21
68248;SHT30;55064;49.636;12.164;2022-10-19T06:13:33;11.11;98.15
68248;SHT30;55064;49.636;12.164;2022-10-19T06:16:02;11.16;98.22
68248;SHT30;55064;49.636;12.164;2022-10-19T06:18:30;11.16;98.21
68248;SHT30;55064;49.636;12.164;2022-10-19T06:21:00;11.20;97.83
68248;SHT30;55064;49.636;12.164;2022-10-19T06:23:26;11.20;97.66
68248;SHT30;55064;49.636;12.164;2022-10-19T06:25:51;11.16;98.14
68248;SHT30;55064;49.636;12.164;2022-10-19T06:28:16;11.20;97.93
68248;SHT30;55064;49.636;12.164;2022-10-19T06:30:44;11.23;98.07
68248;SHT30;55064;49.636;12.164;2022-10-19T06:33:12;11.28;98.00
68248;SHT30;55064;49.636;12.164;2022-10-19T06:35:37;11.30;98.17
68248;SHT30;55064;49.636;12.164;2022-10-19T06:38:05;11.32;98.05
68248;SHT30;55064;49.636;12.164;2022-10-19T06:40:33;11.38;97.83
68248;SHT30;55064;49.636;12.164;2022-10-19T06:42:58;11.44;98.01
68248;SHT30;55064;49.636;12.164;2022-10-19T06:45:26;11.46;97.91
68248;SHT30;55064;49.636;12.164;2022-10-19T06:47:51;11.48;97.90
68248;SHT30;55064;49.636;12.164;2022-10-19T06:50:17;11.55;97.83
68248;SHT30;55064;49.636;12.164;2022-10-19T06:52:42;11.58;97.66
68248;SHT30;55064;49.636;12.164;2022-10-19T06:55:10;11.63;97.64
68248;SHT30;55064;49.636;12.164;2022-10-19T06:57:40;11.59;97.47
68248;SHT30;55064;49.636;12.164;2022-10-19T07:00:09;11.59;97.84
68248;SHT30;55064;49.636;12.164;2022-10-19T07:02:39;11.58;97.64
68248;SHT30;55064;49.636;12.164;2022-10-19T07:05:07;11.55;97.57
68248;SHT30;55064;49.636;12.164;2022-10-19T07:07:33;11.58;97.37
68248;SHT30;55064;49.636;12.164;2022-10-19T07:10:01;11.58;97.30
68248;SHT30;55064;49.636;12.164;2022-10-19T07:12:27;11.52;97.18
68248;SHT30;55064;49.636;12.164;2022-10-19T07:14:56;11.52;96.30
68248;SHT30;55064;49.636;12.164;2022-10-19T07:17:24;11.48;96.39
68248;SHT30;55064;49.636;12.164;2022-10-19T07:19:50;11.46;96.34
68248;SHT30;55064;49.636;12.164;2022-10-19T07:22:15;11.42;95.80
68248;SHT30;55064;49.636;12.164;2022-10-19T07:24:40;11.48;95.41
68248;SHT30;55064;49.636;12.164;2022-10-19T07:27:06;11.50;95.42
68248;SHT30;55064;49.636;12.164;2022-10-19T07:29:31;11.44;95.46
68248;SHT30;55064;49.636;12.164;2022-10-19T07:31:57;11.45;95.10
68248;SHT30;55064;49.636;12.164;2022-10-19T07:34:27;11.46;95.46
68248;SHT30;55064;49.636;12.164;2022-10-19T07:36:53;11.48;95.77
68248;SHT30;55064;49.636;12.164;2022-10-19T07:39:19;11.59;95.89
68248;SHT30;55064;49.636;12.164;2022-10-19T07:41:49;11.66;95.27
68248;SHT30;55064;49.636;12.164;2022-10-19T07:44:17;11.69;94.76
68248;SHT30;55064;49.636;12.164;2022-10-19T07:46:47;11.72;95.01
68248;SHT30;55064;49.636;12.164;2022-10-19T07:49:14;11.78;95.20
68248;SHT30;55064;49.636;12.164;2022-10-19T07:51:44;11.82;95.13
68248;SHT30;55064;49.636;12.164;2022-10-19T07:54:14;11.87;95.09
68248;SHT30;55064;49.636;12.164;2022-10-19T07:56:40;11.91;94.64
68248;SHT30;55064;49.636;12.164;2022-10-19T07:59:08;11.96;93.53
68248;SHT30;55064;49.636;12.164;2022-10-19T08:01:37;11.96;93.76
68248;SHT30;55064;49.636;12.164;2022-10-19T08:04:06;12.09;93.60
68248;SHT30;55064;49.636;12.164;2022-10-19T08:06:32;12.13;93.43
68248;SHT30;55064;49.636;12.164;2022-10-19T08:08:58;12.20;92.92
68248;SHT30;55064;49.636;12.164;2022-10-19T08:11:28;12.17;91.46
68248;SHT30;55064;49.636;12.164;2022-10-19T08:13:56;12.21;92.65
68248;SHT30;55064;49.636;12.164;2022-10-19T08:16:35;12.20;91.37
68248;SHT30;55064;49.636;12.164;2022-10-19T08:19:14;12.21;92.12
68248;SHT30;55064;49.636;12.164;2022-10-19T08:21:43;12.34;92.83
68248;SHT30;55064;49.636;12.164;2022-10-19T08:24:19;12.31;91.66
68248;SHT30;55064;49.636;12.164;2022-10-19T08:26:45;12.44;91.83
68248;SHT30;55064;49.636;12.164;2022-10-19T08:29:15;12.51;91.72
68248;SHT30;55064;49.636;12.164;2022-10-19T08:31:41;12.62;91.49
68248;SHT30;55064;49.636;12.164;2022-10-19T08:34:13;12.69;90.29
68248;SHT30;55064;49.636;12.164;2022-10-19T08:36:39;12.75;90.18
68248;SHT30;55064;49.636;12.164;2022-10-19T08:39:10;12.73;88.81
68248;SHT30;55064;49.636;12.164;2022-10-19T08:49:27;13.06;87.25
68248;SHT30;55064;49.636;12.164;2022-10-19T08:52:00;13.30;87.11
68248;SHT30;55064;49.636;12.164;2022-10-19T08:55:12;13.41;87.72
68248;SHT30;55064;49.636;12.164;2022-10-19T09:03:22;13.36;87.10
68248;SHT30;55064;49.636;12.164;2022-10-19T09:08:20;13.17;86.27
68248;SHT30;55064;49.636;12.164;2022-10-19T09:10:52;12.97;86.59
68248;SHT30;55064;49.636;12.164;2022-10-19T09:13:41;13.04;87.26
68248;SHT30;55064;49.636;12.164;2022-10-19T09:16:12;13.04;85.20
68248;SHT30;55064;49.636;12.164;2022-10-19T09:18:38;13.02;84.91
68248;SHT30;55064;49.636;12.164;2022-10-19T09:23:43;13.13;84.42
68248;SHT30;55064;49.636;12.164;2022-10-19T09:26:16;13.16;84.34
68248;SHT30;55064;49.636;12.164;2022-10-19T09:31:32;13.00;83.24
68248;SHT30;55064;49.636;12.164;2022-10-19T09:34:05;12.92;83.08
68248;SHT30;55064;49.636;12.164;2022-10-19T09:36:39;12.79;83.56
68248;SHT30;55064;49.636;12.164;2022-10-19T09:39:05;12.78;83.28
68248;SHT30;55064;49.636;12.164;2022-10-19T09:41:31;12.90;83.00
68248;SHT30;55064;49.636;12.164;2022-10-19T09:43:57;13.02;82.93
68248;SHT30;55064;49.636;12.164;2022-10-19T09:46:31;12.97;81.42
68248;SHT30;55064;49.636;12.164;2022-10-19T09:49:03;12.97;81.81
68248;SHT30;55064;49.636;12.164;2022-10-19T09:51:43;12.97;80.34
68248;SHT30;55064;49.636;12.164;2022-10-19T09:54:26;12.81;81.29
68248;SHT30;55064;49.636;12.164;2022-10-19T09:56:55;12.86;81.24
68248;SHT30;55064;49.636;12.164;2022-10-19T09:59:23;12.88;80.63
68248;SHT30;55064;49.636;12.164;2022-10-19T10:02:15;13.06;81.25
68248;SHT30;55064;49.636;12.164;2022-10-19T10:04:45;13.27;81.01
68248;SHT30;55064;49.636;12.164;2022-10-19T10:07:19;13.40;78.46
68248;SHT30;55064;49.636;12.164;2022-10-19T10:09:45;13.51;79.10
68248;SHT30;55064;49.636;12.164;2022-10-19T10:12:13;13.58;78.95
68248;SHT30;55064;49.636;12.164;2022-10-19T10:14:42;13.66;78.80
68248;SHT30;55064;49.636;12.164;2022-10-19T10:17:18;13.51;77.23
68248;SHT30;55064;49.636;12.164;2022-10-19T10:20:15;13.24;78.84
68248;SHT30;55064;49.636;12.164;2022-10-19T10:22:52;13.24;78.36
68248;SHT30;55064;49.636;12.164;2022-10-19T10:25:20;13.04;77.03
68248;SHT30;55064;49.636;12.164;2022-10-19T10:28:00;13.19;77.70
68248;SHT30;55064;49.636;12.164;2022-10-19T10:30:30;13.51;78.86
68248;SHT30;55064;49.636;12.164;2022-10-19T10:32:56;13.96;77.05
68248;SHT30;55064;49.636;12.164;2022-10-19T10:38:06;13.85;73.47
68248;SHT30;55064;49.636;12.164;2022-10-19T10:40:32;13.98;72.54
68248;SHT30;55064;49.636;12.164;2022-10-19T10:43:08;14.12;71.60
68248;SHT30;55064;49.636;12.164;2022-10-19T10:45:45;14.60;73.19
68248;SHT30;55064;49.636;12.164;2022-10-19T10:48:43;14.96;70.78
68248;SHT30;55064;49.636;12.164;2022-10-19T10:51:39;15.09;70.74
68248;SHT30;55064;49.636;12.164;2022-10-19T10:54:20;15.46;70.25
68248;SHT30;55064;49.636;12.164;2022-10-19T10:59:59;15.68;69.95
68248;SHT30;55064;49.636;12.164;2022-10-19T11:05:28;15.67;68.93
68248;SHT30;55064;49.636;12.164;2022-10-19T11:08:14;15.67;68.60
68248;SHT30;55064;49.636;12.164;2022-10-19T11:10:54;15.84;68.72
68248;SHT30;55064;49.636;12.164;2022-10-19T11:16:07;15.95;67.28
68248;SHT30;55064;49.636;12.164;2022-10-19T11:18:47;16.01;67.07
68248;SHT30;55064;49.636;12.164;2022-10-19T11:31:46;16.36;65.89
68248;SHT30;55064;49.636;12.164;2022-10-19T11:39:52;16.03;67.24
68248;SHT30;55064;49.636;12.164;2022-10-19T11:48:04;16.53;64.56
68248;SHT30;55064;49.636;12.164;2022-10-19T11:51:03;16.65;63.51
68248;SHT30;55064;49.636;12.164;2022-10-19T12:13:28;16.81;62.50
68248;SHT30;55064;49.636;12.164;2022-10-19T12:15:58;16.84;62.15
68248;SHT30;55064;49.636;12.164;2022-10-19T12:21:18;16.89;63.50
68248;SHT30;55064;49.636;12.164;2022-10-19T12:23:49;16.92;61.68
68248;SHT30;55064;49.636;12.164;2022-10-19T12:26:20;16.98;61.47
68248;SHT30;55064;49.636;12.164;2022-10-19T12:28:49;17.05;62.65
68248;SHT30;55064;49.636;12.164;2022-10-19T12:31:16;16.84;61.17
68248;SHT30;55064;49.636;12.164;2022-10-19T12:37:06;16.94;60.88
68248;SHT30;55064;49.636;12.164;2022-10-19T12:42:55;16.82;62.16
68248;SHT30;55064;49.636;12.164;2022-10-19T12:45:51;16.84;61.87
68248;SHT30;55064;49.636;12.164;2022-10-19T12:48:24;16.84;60.68
68248;SHT30;55064;49.636;12.164;2022-10-19T12:53:23;16.88;61.55
68248;SHT30;55064;49.636;12.164;2022-10-19T12:56:01;16.98;60.86
68248;SHT30;55064;49.636;12.164;2022-10-19T13:03:42;16.85;60.48
68248;SHT30;55064;49.636;12.164;2022-10-19T13:06:31;16.89;59.40
68248;SHT30;55064;49.636;12.164;2022-10-19T13:09:05;16.95;60.19
68248;SHT30;55064;49.636;12.164;2022-10-19T13:11:32;16.94;60.23
68248;SHT30;55064;49.636;12.164;2022-10-19T13:17:04;16.96;60.75
68248;SHT30;55064;49.636;12.164;2022-10-19T13:19:31;17.12;60.05
68248;SHT30;55064;49.636;12.164;2022-10-19T13:27:22;16.96;61.53
68248;SHT30;55064;49.636;12.164;2022-10-19T13:29:48;17.05;61.69
68248;SHT30;55064;49.636;12.164;2022-10-19T13:35:36;16.87;62.29
68248;SHT30;55064;49.636;12.164;2022-10-19T13:43:37;16.61;60.87
68248;SHT30;55064;49.636;12.164;2022-10-19T13:51:45;16.63;59.57
68248;SHT30;55064;49.636;12.164;2022-10-19T14:08:26;16.36;63.60
68248;SHT30;55064;49.636;12.164;2022-10-19T14:10:59;16.23;63.53
68248;SHT30;55064;49.636;12.164;2022-10-19T14:13:25;16.23;64.13
68248;SHT30;55064;49.636;12.164;2022-10-19T14:15:56;16.15;63.76
68248;SHT30;55064;49.636;12.164;2022-10-19T14:18:34;16.09;63.98
68248;SHT30;55064;49.636;12.164;2022-10-19T14:21:06;16.05;64.23
68248;SHT30;55064;49.636;12.164;2022-10-19T14:23:34;16.01;65.10
68248;SHT30;55064;49.636;12.164;2022-10-19T14:26:01;15.94;64.30
68248;SHT30;55064;49.636;12.164;2022-10-19T14:28:29;15.89;64.55
68248;SHT30;55064;49.636;12.164;2022-10-19T14:31:07;15.85;64.63
68248;SHT30;55064;49.636;12.164;2022-10-19T14:33:37;15.65;65.18
68248;SHT30;55064;49.636;12.164;2022-10-19T14:36:06;15.62;64.35
68248;SHT30;55064;49.636;12.164;2022-10-19T14:38:40;15.50;63.53
68248;SHT30;55064;49.636;12.164;2022-10-19T14:41:28;15.46;64.67
68248;SHT30;55064;49.636;12.164;2022-10-19T14:43:55;15.43;64.27
68248;SHT30;55064;49.636;12.164;2022-10-19T14:46:25;15.44;64.63
68248;SHT30;55064;49.636;12.164;2022-10-19T14:48:58;15.41;63.26
68248;SHT30;55064;49.636;12.164;2022-10-19T14:51:39;15.31;63.46
68248;SHT30;55064;49.636;12.164;2022-10-19T14:56:51;15.31;66.04
68248;SHT30;55064;49.636;12.164;2022-10-19T15:01:57;15.39;65.25
68248;SHT30;55064;49.636;12.164;2022-10-19T15:04:26;15.34;65.71
68248;SHT30;55064;49.636;12.164;2022-10-19T15:06:56;15.27;65.85
68248;SHT30;55064;49.636;12.164;2022-10-19T15:09:27;15.19;65.82
68248;SHT30;55064;49.636;12.164;2022-10-19T15:11:56;15.04;66.22
68248;SHT30;55064;49.636;12.164;2022-10-19T15:14:29;15.00;67.31
68248;SHT30;55064;49.636;12.164;2022-10-19T15:16:57;14.96;67.77
68248;SHT30;55064;49.636;12.164;2022-10-19T15:19:31;14.91;66.74
68248;SHT30;55064;49.636;12.164;2022-10-19T15:27:30;14.64;67.03
68248;SHT30;55064;49.636;12.164;2022-10-19T15:30:03;14.49;68.00
68248;SHT30;55064;49.636;12.164;2022-10-19T15:32:35;14.37;68.44
68248;SHT30;55064;49.636;12.164;2022-10-19T15:35:31;14.36;68.71
68248;SHT30;55064;49.636;12.164;2022-10-19T15:40:42;14.00;69.15
68248;SHT30;55064;49.636;12.164;2022-10-19T15:48:54;13.55;70.15
68248;SHT30;55064;49.636;12.164;2022-10-19T15:56:21;13.14;72.05
68248;SHT30;55064;49.636;12.164;2022-10-19T15:58:51;12.92;72.39
68248;SHT30;55064;49.636;12.164;2022-10-19T16:01:22;12.75;72.50
68248;SHT30;55064;49.636;12.164;2022-10-19T16:03:48;12.55;72.42
68248;SHT30;55064;49.636;12.164;2022-10-19T16:06:16;12.49;73.38
68248;SHT30;55064;49.636;12.164;2022-10-19T16:08:42;12.41;74.25
68248;SHT30;55064;49.636;12.164;2022-10-19T16:11:17;12.20;74.48
68248;SHT30;55064;49.636;12.164;2022-10-19T16:13:43;12.14;74.93
68248;SHT30;55064;49.636;12.164;2022-10-19T16:16:12;12.03;75.41
68248;SHT30;55064;49.636;12.164;2022-10-19T16:18:38;11.91;75.34
68248;SHT30;55064;49.636;12.164;2022-10-19T16:21:04;11.87;75.25
68248;SHT30;55064;49.636;12.164;2022-10-19T16:23:32;11.86;75.45
68248;SHT30;55064;49.636;12.164;2022-10-19T16:26:02;11.76;75.47
68248;SHT30;55064;49.636;12.164;2022-10-19T16:28:30;11.69;75.90
68248;SHT30;55064;49.636;12.164;2022-10-19T16:31:00;11.61;76.51
68248;SHT30;55064;49.636;12.164;2022-10-19T16:33:28;11.48;77.04
68248;SHT30;55064;49.636;12.164;2022-10-19T16:35:56;11.46;77.19
68248;SHT30;55064;49.636;12.164;2022-10-19T16:38:21;11.39;77.23
68248;SHT30;55064;49.636;12.164;2022-10-19T16:40:47;11.38;77.34
68248;SHT30;55064;49.636;12.164;2022-10-19T16:43:12;11.28;77.55
68248;SHT30;55064;49.636;12.164;2022-10-19T16:45:41;11.21;77.86
68248;SHT30;55064;49.636;12.164;2022-10-19T16:48:06;11.13;78.15
68248;SHT30;55064;49.636;12.164;2022-10-19T16:50:34;11.11;78.35
68248;SHT30;55064;49.636;12.164;2022-10-19T16:53:05;11.11;78.37
68248;SHT30;55064;49.636;12.164;2022-10-19T16:55:37;11.08;78.54
68248;SHT30;55064;49.636;12.164;2022-10-19T16:58:04;11.06;78.66
68248;SHT30;55064;49.636;12.164;2022-10-19T17:00:29;11.00;78.80
68248;SHT30;55064;49.636;12.164;2022-10-19T17:02:57;11.03;79.14
68248;SHT30;55064;49.636;12.164;2022-10-19T17:05:25;11.07;78.93
68248;SHT30;55064;49.636;12.164;2022-10-19T17:07:50;11.21;79.01
68248;SHT30;55064;49.636;12.164;2022-10-19T17:10:20;11.08;81.08
68248;SHT30;55064;49.636;12.164;2022-10-19T17:12:46;11.03;81.56
68248;SHT30;55064;49.636;12.164;2022-10-19T17:15:11;10.97;81.99
68248;SHT30;55064;49.636;12.164;2022-10-19T17:17:40;10.99;81.68
68248;SHT30;55064;49.636;12.164;2022-10-19T17:20:05;10.80;82.42
68248;SHT30;55064;49.636;12.164;2022-10-19T17:22:35;10.73;82.61
68248;SHT30;55064;49.636;12.164;2022-10-19T17:25:00;10.69;82.79
68248;SHT30;55064;49.636;12.164;2022-10-19T17:27:35;10.66;81.99
68248;SHT30;55064;49.636;12.164;2022-10-19T17:30:03;10.75;81.72
68248;SHT30;55064;49.636;12.164;2022-10-19T17:32:31;10.87;81.05
68248;SHT30;55064;49.636;12.164;2022-10-19T17:34:56;10.92;80.96
68248;SHT30;55064;49.636;12.164;2022-10-19T17:37:24;10.95;80.94
68248;SHT30;55064;49.636;12.164;2022-10-19T17:39:52;10.92;81.12
68248;SHT30;55064;49.636;12.164;2022-10-19T17:42:17;10.80;81.59
68248;SHT30;55064;49.636;12.164;2022-10-19T17:44:45;10.80;81.72
68248;SHT30;55064;49.636;12.164;2022-10-19T17:47:17;10.80;81.82
68248;SHT30;55064;49.636;12.164;2022-10-19T17:49:42;10.81;81.71
68248;SHT30;55064;49.636;12.164;2022-10-19T17:52:12;10.75;81.96
68248;SHT30;55064;49.636;12.164;2022-10-19T17:54:40;10.68;82.30
68248;SHT30;55064;49.636;12.164;2022-10-19T17:57:05;10.70;82.21
68248;SHT30;55064;49.636;12.164;2022-10-19T17:59:33;10.70;82.32
68248;SHT30;55064;49.636;12.164;2022-10-19T18:02:02;10.55;82.46
68248;SHT30;55064;49.636;12.164;2022-10-19T18:04:28;10.52;82.90
68248;SHT30;55064;49.636;12.164;2022-10-19T18:06:53;10.51;82.63
68248;SHT30;55064;49.636;12.164;2022-10-19T18:09:19;10.49;82.26
68248;SHT30;55064;49.636;12.164;2022-10-19T18:11:46;10.40;82.34
68248;SHT30;55064;49.636;12.164;2022-10-19T18:14:12;10.41;82.03
68248;SHT30;55064;49.636;12.164;2022-10-19T18:16:44;10.37;82.19
68248;SHT30;55064;49.636;12.164;2022-10-19T18:19:11;10.35;81.27
68248;SHT30;55064;49.636;12.164;2022-10-19T18:21:39;10.32;81.26
68248;SHT30;55064;49.636;12.164;2022-10-19T18:24:07;10.25;81.49
68248;SHT30;55064;49.636;12.164;2022-10-19T18:26:33;10.20;81.70
68248;SHT30;55064;49.636;12.164;2022-10-19T18:29:13;10.15;81.50
68248;SHT30;55064;49.636;12.164;2022-10-19T18:31:44;10.11;81.55
68248;SHT30;55064;49.636;12.164;2022-10-19T18:34:18;10.06;81.30
68248;SHT30;55064;49.636;12.164;2022-10-19T18:36:44;10.03;81.03
68248;SHT30;55064;49.636;12.164;2022-10-19T18:39:12;9.98;80.74